sensor_id;sensor_type;location;lat;lon;timestamp;P1;durP1;ratioP1;P2;durP2;ratioP2
14760;SDS011;7472;45.396;5.272;2023-06-22T00:00:14;15.13;;;5.78;;
14760;SDS011;7472;45.396;5.272;2023-06-22T00:02:43;11.93;;;5.03;;
14760;SDS011;7472;45.396;5.272;2023-06-22T00:05:10;13.40;;;6.15;;
14760;SDS011;7472;45.396;5.272;2023-06-22T00:07:38;14.57;;;5.50;;
14760;SDS011;7472;45.396;5.272;2023-06-22T00:10:05;13.63;;;6.95;;
14760;SDS011;7472;45.396;5.272;2023-06-22T00:12:33;9.63;;;4.82;;
14760;SDS011;7472;45.396;5.272;2023-06-22T00:15:00;14.80;;;5.85;;
14760;SDS011;7472;45.396;5.272;2023-06-22T00:17:28;12.80;;;6.03;;
14760;SDS011;7472;45.396;5.272;2023-06-22T00:19:57;17.63;;;5.93;;
14760;SDS011;7472;45.396;5.272;2023-06-22T00:22:25;14.38;;;6.05;;
14760;SDS011;7472;45.396;5.272;2023-06-22T00:24:54;16.63;;;5.70;;
14760;SDS011;7472;45.396;5.272;2023-06-22T00:27:21;15.82;;;5.40;;
14760;SDS011;7472;45.396;5.272;2023-06-22T00:29:49;10.80;;;6.00;;
14760;SDS011;7472;45.396;5.272;2023-06-22T00:32:16;16.27;;;6.13;;
14760;SDS011;7472;45.396;5.272;2023-06-22T00:34:44;14.10;;;5.93;;
14760;SDS011;7472;45.396;5.272;2023-06-22T00:37:13;13.02;;;5.95;;
14760;SDS011;7472;45.396;5.272;2023-06-22T00:39:41;9.82;;;4.43;;
14760;SDS011;7472;45.396;5.272;2023-06-22T00:42:08;11.93;;;6.53;;
14760;SDS011;7472;45.396;5.272;2023-06-22T00:44:36;13.55;;;5.75;;
14760;SDS011;7472;45.396;5.272;2023-06-22T00:47:03;12.20;;;5.68;;
14760;SDS011;7472;45.396;5.272;2023-06-22T00:49:31;17.25;;;6.05;;
14760;SDS011;7472;45.396;5.272;2023-06-22T00:51:59;12.73;;;5.50;;
14760;SDS011;7472;45.396;5.272;2023-06-22T00:54:28;13.10;;;5.57;;
14760;SDS011;7472;45.396;5.272;2023-06-22T00:56:55;15.23;;;5.70;;
14760;SDS011;7472;45.396;5.272;2023-06-22T00:59:23;11.70;;;5.57;;
14760;SDS011;7472;45.396;5.272;2023-06-22T01:01:51;16.67;;;5.57;;
14760;SDS011;7472;45.396;5.272;2023-06-22T01:04:18;12.45;;;5.60;;
14760;SDS011;7472;45.396;5.272;2023-06-22T01:06:47;10.38;;;5.93;;
14760;SDS011;7472;45.396;5.272;2023-06-22T01:09:19;10.98;;;5.75;;
14760;SDS011;7472;45.396;5.272;2023-06-22T01:11:52;14.07;;;5.50;;
14760;SDS011;7472;45.396;5.272;2023-06-22T01:14:20;16.77;;;5.70;;
14760;SDS011;7472;45.396;5.272;2023-06-22T01:16:50;12.18;;;5.45;;
14760;SDS011;7472;45.396;5.272;2023-06-22T01:19:27;13.93;;;5.53;;
14760;SDS011;7472;45.396;5.272;2023-06-22T01:21:56;11.07;;;5.72;;
14760;SDS011;7472;45.396;5.272;2023-06-22T01:24:26;15.05;;;5.00;;
14760;SDS011;7472;45.396;5.272;2023-06-22T01:26:57;12.43;;;5.65;;
14760;SDS011;7472;45.396;5.272;2023-06-22T01:29:28;14.82;;;5.40;;
14760;SDS011;7472;45.396;5.272;2023-06-22T01:31:56;11.25;;;5.43;;
14760;SDS011;7472;45.396;5.272;2023-06-22T01:34:24;14.82;;;5.50;;
14760;SDS011;7472;45.396;5.272;2023-06-22T01:36:52;10.98;;;5.63;;
14760;SDS011;7472;45.396;5.272;2023-06-22T01:39:20;9.60;;;6.25;;
14760;SDS011;7472;45.396;5.272;2023-06-22T01:41:48;14.32;;;6.35;;
14760;SDS011;7472;45.396;5.272;2023-06-22T01:44:15;14.35;;;5.80;;
14760;SDS011;7472;45.396;5.272;2023-06-22T01:46:44;13.00;;;5.78;;
14760;SDS011;7472;45.396;5.272;2023-06-22T01:49:12;11.20;;;6.30;;
14760;SDS011;7472;45.396;5.272;2023-06-22T01:51:39;12.45;;;6.18;;
14760;SDS011;7472;45.396;5.272;2023-06-22T01:54:07;10.60;;;6.35;;
14760;SDS011;7472;45.396;5.272;2023-06-22T01:56:34;12.27;;;6.13;;
14760;SDS011;7472;45.396;5.272;2023-06-22T01:59:03;15.32;;;6.55;;
14760;SDS011;7472;45.396;5.272;2023-06-22T02:01:33;14.02;;;6.20;;
14760;SDS011;7472;45.396;5.272;2023-06-22T02:04:06;10.93;;;5.95;;
14760;SDS011;7472;45.396;5.272;2023-06-22T02:06:35;15.70;;;6.28;;
14760;SDS011;7472;45.396;5.272;2023-06-22T02:09:06;11.88;;;6.00;;
14760;SDS011;7472;45.396;5.272;2023-06-22T02:11:34;13.65;;;6.47;;
14760;SDS011;7472;45.396;5.272;2023-06-22T02:14:02;16.75;;;7.13;;
14760;SDS011;7472;45.396;5.272;2023-06-22T02:16:30;17.88;;;6.65;;
14760;SDS011;7472;45.396;5.272;2023-06-22T02:18:58;18.13;;;6.55;;
14760;SDS011;7472;45.396;5.272;2023-06-22T02:21:30;14.73;;;6.85;;
14760;SDS011;7472;45.396;5.272;2023-06-22T02:23:57;11.48;;;5.75;;
14760;SDS011;7472;45.396;5.272;2023-06-22T02:26:25;11.77;;;5.85;;
14760;SDS011;7472;45.396;5.272;2023-06-22T02:28:52;12.95;;;6.35;;
14760;SDS011;7472;45.396;5.272;2023-06-22T02:31:20;13.57;;;6.18;;
14760;SDS011;7472;45.396;5.272;2023-06-22T02:33:47;14.27;;;7.05;;
14760;SDS011;7472;45.396;5.272;2023-06-22T02:36:15;10.88;;;6.57;;
14760;SDS011;7472;45.396;5.272;2023-06-22T02:38:48;11.98;;;6.00;;
14760;SDS011;7472;45.396;5.272;2023-06-22T02:41:16;14.50;;;6.40;;
14760;SDS011;7472;45.396;5.272;2023-06-22T02:43:44;17.60;;;6.20;;
14760;SDS011;7472;45.396;5.272;2023-06-22T02:46:11;16.33;;;7.00;;
14760;SDS011;7472;45.396;5.272;2023-06-22T02:48:39;10.10;;;6.53;;
14760;SDS011;7472;45.396;5.272;2023-06-22T02:51:06;14.00;;;6.55;;
14760;SDS011;7472;45.396;5.272;2023-06-22T02:53:34;17.00;;;7.97;;
14760;SDS011;7472;45.396;5.272;2023-06-22T02:56:03;13.80;;;6.07;;
14760;SDS011;7472;45.396;5.272;2023-06-22T02:58:31;12.70;;;7.30;;
14760;SDS011;7472;45.396;5.272;2023-06-22T03:01:04;13.40;;;7.38;;
14760;SDS011;7472;45.396;5.272;2023-06-22T03:03:31;10.95;;;6.40;;
14760;SDS011;7472;45.396;5.272;2023-06-22T03:05:58;15.35;;;7.70;;
14760;SDS011;7472;45.396;5.272;2023-06-22T03:08:27;11.80;;;7.05;;
14760;SDS011;7472;45.396;5.272;2023-06-22T03:10:55;15.25;;;7.63;;
14760;SDS011;7472;45.396;5.272;2023-06-22T03:13:23;12.95;;;6.55;;
14760;SDS011;7472;45.396;5.272;2023-06-22T03:15:51;15.35;;;8.43;;
14760;SDS011;7472;45.396;5.272;2023-06-22T03:18:18;18.70;;;7.68;;
14760;SDS011;7472;45.396;5.272;2023-06-22T03:20:47;14.52;;;8.00;;
14760;SDS011;7472;45.396;5.272;2023-06-22T03:23:14;16.63;;;8.95;;
14760;SDS011;7472;45.396;5.272;2023-06-22T03:25:42;16.90;;;9.35;;
14760;SDS011;7472;45.396;5.272;2023-06-22T03:28:10;22.30;;;9.13;;
14760;SDS011;7472;45.396;5.272;2023-06-22T03:30:39;16.85;;;8.40;;
14760;SDS011;7472;45.396;5.272;2023-06-22T03:33:07;16.20;;;9.57;;
14760;SDS011;7472;45.396;5.272;2023-06-22T03:35:34;13.85;;;8.63;;
14760;SDS011;7472;45.396;5.272;2023-06-22T03:38:01;15.98;;;8.45;;
14760;SDS011;7472;45.396;5.272;2023-06-22T03:40:29;15.90;;;7.47;;
14760;SDS011;7472;45.396;5.272;2023-06-22T03:42:56;18.30;;;9.27;;
14760;SDS011;7472;45.396;5.272;2023-06-22T03:45:23;17.10;;;9.18;;
14760;SDS011;7472;45.396;5.272;2023-06-22T03:47:52;13.85;;;8.25;;
14760;SDS011;7472;45.396;5.272;2023-06-22T03:50:20;17.95;;;8.85;;
14760;SDS011;7472;45.396;5.272;2023-06-22T03:52:47;14.95;;;8.55;;
14760;SDS011;7472;45.396;5.272;2023-06-22T03:55:16;23.15;;;9.48;;
14760;SDS011;7472;45.396;5.272;2023-06-22T03:57:44;16.27;;;8.75;;
14760;SDS011;7472;45.396;5.272;2023-06-22T04:00:11;14.38;;;8.85;;
14760;SDS011;7472;45.396;5.272;2023-06-22T04:02:40;17.10;;;9.95;;
14760;SDS011;7472;45.396;5.272;2023-06-22T04:05:09;21.20;;;9.70;;
14760;SDS011;7472;45.396;5.272;2023-06-22T04:07:37;15.35;;;8.80;;
14760;SDS011;7472;45.396;5.272;2023-06-22T04:10:05;16.20;;;9.43;;
14760;SDS011;7472;45.396;5.272;2023-06-22T04:12:33;25.45;;;10.07;;
14760;SDS011;7472;45.396;5.272;2023-06-22T04:15:01;17.55;;;9.40;;
14760;SDS011;7472;45.396;5.272;2023-06-22T04:17:28;21.83;;;9.05;;
14760;SDS011;7472;45.396;5.272;2023-06-22T04:19:55;17.75;;;9.07;;
14760;SDS011;7472;45.396;5.272;2023-06-22T04:22:24;16.05;;;8.98;;
14760;SDS011;7472;45.396;5.272;2023-06-22T04:24:52;17.73;;;10.18;;
14760;SDS011;7472;45.396;5.272;2023-06-22T04:27:19;15.85;;;7.95;;
14760;SDS011;7472;45.396;5.272;2023-06-22T04:29:48;21.90;;;8.63;;
14760;SDS011;7472;45.396;5.272;2023-06-22T04:32:16;17.00;;;8.30;;
14760;SDS011;7472;45.396;5.272;2023-06-22T04:34:44;16.08;;;8.82;;
14760;SDS011;7472;45.396;5.272;2023-06-22T04:37:11;14.32;;;9.13;;
14760;SDS011;7472;45.396;5.272;2023-06-22T04:39:42;13.80;;;7.65;;
14760;SDS011;7472;45.396;5.272;2023-06-22T04:42:09;18.98;;;7.97;;
14760;SDS011;7472;45.396;5.272;2023-06-22T04:44:37;16.73;;;7.78;;
14760;SDS011;7472;45.396;5.272;2023-06-22T04:47:05;19.20;;;8.48;;
14760;SDS011;7472;45.396;5.272;2023-06-22T04:49:34;18.73;;;8.27;;
14760;SDS011;7472;45.396;5.272;2023-06-22T04:52:03;12.20;;;8.23;;
14760;SDS011;7472;45.396;5.272;2023-06-22T04:54:30;15.65;;;7.97;;
14760;SDS011;7472;45.396;5.272;2023-06-22T04:57:00;20.67;;;8.48;;
14760;SDS011;7472;45.396;5.272;2023-06-22T04:59:28;17.55;;;8.60;;
14760;SDS011;7472;45.396;5.272;2023-06-22T05:01:56;15.85;;;8.57;;
14760;SDS011;7472;45.396;5.272;2023-06-22T05:04:23;19.92;;;7.65;;
14760;SDS011;7472;45.396;5.272;2023-06-22T05:06:51;14.05;;;7.45;;
14760;SDS011;7472;45.396;5.272;2023-06-22T05:09:18;15.23;;;7.50;;
14760;SDS011;7472;45.396;5.272;2023-06-22T05:11:46;16.27;;;8.10;;
14760;SDS011;7472;45.396;5.272;2023-06-22T05:14:14;17.13;;;7.80;;
14760;SDS011;7472;45.396;5.272;2023-06-22T05:16:42;20.92;;;7.45;;
14760;SDS011;7472;45.396;5.272;2023-06-22T05:19:10;17.50;;;7.53;;
14760;SDS011;7472;45.396;5.272;2023-06-22T05:21:37;21.25;;;7.95;;
14760;SDS011;7472;45.396;5.272;2023-06-22T05:24:05;17.75;;;9.38;;
14760;SDS011;7472;45.396;5.272;2023-06-22T05:26:33;18.30;;;9.38;;
14760;SDS011;7472;45.396;5.272;2023-06-22T05:29:01;16.50;;;9.55;;
14760;SDS011;7472;45.396;5.272;2023-06-22T05:31:30;21.45;;;10.23;;
14760;SDS011;7472;45.396;5.272;2023-06-22T05:33:57;17.92;;;10.07;;
14760;SDS011;7472;45.396;5.272;2023-06-22T05:36:26;22.40;;;10.48;;
14760;SDS011;7472;45.396;5.272;2023-06-22T05:38:53;16.25;;;9.35;;
14760;SDS011;7472;45.396;5.272;2023-06-22T05:41:21;19.85;;;8.95;;
14760;SDS011;7472;45.396;5.272;2023-06-22T05:43:48;18.90;;;8.73;;
14760;SDS011;7472;45.396;5.272;2023-06-22T05:46:15;19.58;;;8.85;;
14760;SDS011;7472;45.396;5.272;2023-06-22T05:48:44;20.23;;;7.32;;
14760;SDS011;7472;45.396;5.272;2023-06-22T05:51:12;15.93;;;6.45;;
14760;SDS011;7472;45.396;5.272;2023-06-22T05:53:39;19.02;;;7.88;;
14760;SDS011;7472;45.396;5.272;2023-06-22T05:56:07;12.07;;;6.72;;
14760;SDS011;7472;45.396;5.272;2023-06-22T05:58:35;22.10;;;7.35;;
14760;SDS011;7472;45.396;5.272;2023-06-22T06:01:02;13.23;;;7.32;;
14760;SDS011;7472;45.396;5.272;2023-06-22T06:03:29;21.35;;;8.85;;
14760;SDS011;7472;45.396;5.272;2023-06-22T06:05:58;17.75;;;7.63;;
14760;SDS011;7472;45.396;5.272;2023-06-22T06:08:27;20.50;;;8.30;;
14760;SDS011;7472;45.396;5.272;2023-06-22T06:10:55;18.85;;;8.60;;
14760;SDS011;7472;45.396;5.272;2023-06-22T06:13:22;17.08;;;8.20;;
14760;SDS011;7472;45.396;5.272;2023-06-22T06:15:50;22.08;;;8.27;;
14760;SDS011;7472;45.396;5.272;2023-06-22T06:18:20;17.27;;;7.40;;
14760;SDS011;7472;45.396;5.272;2023-06-22T06:20:47;17.92;;;7.70;;
14760;SDS011;7472;45.396;5.272;2023-06-22T06:23:16;16.05;;;7.25;;
14760;SDS011;7472;45.396;5.272;2023-06-22T06:25:43;14.85;;;6.68;;
14760;SDS011;7472;45.396;5.272;2023-06-22T06:28:11;17.30;;;7.53;;
14760;SDS011;7472;45.396;5.272;2023-06-22T06:30:38;17.45;;;7.68;;
14760;SDS011;7472;45.396;5.272;2023-06-22T06:33:06;15.90;;;7.57;;
14760;SDS011;7472;45.396;5.272;2023-06-22T06:35:34;19.25;;;8.82;;
14760;SDS011;7472;45.396;5.272;2023-06-22T06:38:02;21.73;;;7.68;;
14760;SDS011;7472;45.396;5.272;2023-06-22T06:40:31;14.23;;;7.78;;
14760;SDS011;7472;45.396;5.272;2023-06-22T06:42:59;19.55;;;7.95;;
14760;SDS011;7472;45.396;5.272;2023-06-22T06:45:26;21.58;;;8.18;;
14760;SDS011;7472;45.396;5.272;2023-06-22T06:47:54;14.80;;;8.55;;
14760;SDS011;7472;45.396;5.272;2023-06-22T06:50:21;19.77;;;8.57;;
14760;SDS011;7472;45.396;5.272;2023-06-22T06:52:49;16.85;;;8.70;;
14760;SDS011;7472;45.396;5.272;2023-06-22T06:55:17;15.93;;;7.63;;
14760;SDS011;7472;45.396;5.272;2023-06-22T06:57:46;14.48;;;7.82;;
14760;SDS011;7472;45.396;5.272;2023-06-22T07:00:15;17.88;;;8.13;;
14760;SDS011;7472;45.396;5.272;2023-06-22T07:02:43;21.90;;;9.00;;
14760;SDS011;7472;45.396;5.272;2023-06-22T07:05:12;14.63;;;7.22;;
14760;SDS011;7472;45.396;5.272;2023-06-22T07:07:40;17.85;;;6.75;;
14760;SDS011;7472;45.396;5.272;2023-06-22T07:10:08;10.30;;;6.53;;
14760;SDS011;7472;45.396;5.272;2023-06-22T07:12:35;18.02;;;7.10;;
14760;SDS011;7472;45.396;5.272;2023-06-22T07:15:05;21.70;;;7.20;;
14760;SDS011;7472;45.396;5.272;2023-06-22T07:17:33;17.42;;;7.25;;
14760;SDS011;7472;45.396;5.272;2023-06-22T07:20:00;11.55;;;6.43;;
14760;SDS011;7472;45.396;5.272;2023-06-22T07:22:32;15.32;;;7.25;;
14760;SDS011;7472;45.396;5.272;2023-06-22T07:25:00;11.70;;;7.13;;
14760;SDS011;7472;45.396;5.272;2023-06-22T07:27:30;15.80;;;7.85;;
14760;SDS011;7472;45.396;5.272;2023-06-22T07:30:01;18.13;;;8.02;;
14760;SDS011;7472;45.396;5.272;2023-06-22T07:32:29;17.00;;;9.43;;
14760;SDS011;7472;45.396;5.272;2023-06-22T07:34:57;15.93;;;9.75;;
14760;SDS011;7472;45.396;5.272;2023-06-22T07:37:24;21.58;;;10.80;;
14760;SDS011;7472;45.396;5.272;2023-06-22T07:39:52;20.80;;;10.13;;
14760;SDS011;7472;45.396;5.272;2023-06-22T07:42:23;20.38;;;9.93;;
14760;SDS011;7472;45.396;5.272;2023-06-22T07:44:50;21.20;;;9.20;;
14760;SDS011;7472;45.396;5.272;2023-06-22T07:47:18;15.93;;;9.30;;
14760;SDS011;7472;45.396;5.272;2023-06-22T07:49:47;16.45;;;10.68;;
14760;SDS011;7472;45.396;5.272;2023-06-22T07:52:14;17.80;;;10.30;;
14760;SDS011;7472;45.396;5.272;2023-06-22T07:54:41;20.00;;;9.65;;
14760;SDS011;7472;45.396;5.272;2023-06-22T07:57:09;21.27;;;9.85;;
14760;SDS011;7472;45.396;5.272;2023-06-22T07:59:36;19.83;;;9.90;;
14760;SDS011;7472;45.396;5.272;2023-06-22T08:02:04;23.85;;;10.00;;
14760;SDS011;7472;45.396;5.272;2023-06-22T08:04:33;22.58;;;9.80;;
14760;SDS011;7472;45.396;5.272;2023-06-22T08:07:02;21.45;;;9.15;;
14760;SDS011;7472;45.396;5.272;2023-06-22T08:09:30;18.02;;;9.95;;
14760;SDS011;7472;45.396;5.272;2023-06-22T08:11:57;18.27;;;9.20;;
14760;SDS011;7472;45.396;5.272;2023-06-22T08:14:25;21.38;;;10.23;;
14760;SDS011;7472;45.396;5.272;2023-06-22T08:16:52;25.33;;;9.60;;
14760;SDS011;7472;45.396;5.272;2023-06-22T08:19:19;17.25;;;9.13;;
14760;SDS011;7472;45.396;5.272;2023-06-22T08:21:47;19.73;;;9.25;;
14760;SDS011;7472;45.396;5.272;2023-06-22T08:24:16;19.52;;;9.05;;
14760;SDS011;7472;45.396;5.272;2023-06-22T08:26:43;20.42;;;9.48;;
14760;SDS011;7472;45.396;5.272;2023-06-22T08:29:11;15.63;;;8.45;;
14760;SDS011;7472;45.396;5.272;2023-06-22T08:31:39;24.85;;;8.38;;
14760;SDS011;7472;45.396;5.272;2023-06-22T08:34:06;19.63;;;9.20;;
14760;SDS011;7472;45.396;5.272;2023-06-22T08:36:34;21.02;;;9.40;;
14760;SDS011;7472;45.396;5.272;2023-06-22T08:39:06;15.75;;;8.13;;
14760;SDS011;7472;45.396;5.272;2023-06-22T08:41:35;17.83;;;7.53;;
14760;SDS011;7472;45.396;5.272;2023-06-22T08:44:03;16.83;;;8.40;;
14760;SDS011;7472;45.396;5.272;2023-06-22T08:46:31;22.95;;;7.80;;
14760;SDS011;7472;45.396;5.272;2023-06-22T08:48:58;15.43;;;8.00;;
14760;SDS011;7472;45.396;5.272;2023-06-22T08:51:26;17.83;;;7.35;;
14760;SDS011;7472;45.396;5.272;2023-06-22T08:53:54;17.70;;;7.80;;
14760;SDS011;7472;45.396;5.272;2023-06-22T08:56:21;14.02;;;6.43;;
14760;SDS011;7472;45.396;5.272;2023-06-22T08:58:50;17.33;;;6.70;;
14760;SDS011;7472;45.396;5.272;2023-06-22T09:01:17;17.88;;;6.85;;
14760;SDS011;7472;45.396;5.272;2023-06-22T09:03:45;19.45;;;7.70;;
14760;SDS011;7472;45.396;5.272;2023-06-22T09:06:19;14.05;;;6.72;;
14760;SDS011;7472;45.396;5.272;2023-06-22T09:08:46;14.60;;;6.95;;
14760;SDS011;7472;45.396;5.272;2023-06-22T09:11:14;16.00;;;6.50;;
14760;SDS011;7472;45.396;5.272;2023-06-22T09:13:41;18.95;;;6.68;;
14760;SDS011;7472;45.396;5.272;2023-06-22T09:16:10;18.42;;;7.32;;
14760;SDS011;7472;45.396;5.272;2023-06-22T09:18:38;15.55;;;7.15;;
14760;SDS011;7472;45.396;5.272;2023-06-22T09:21:05;16.58;;;6.25;;
14760;SDS011;7472;45.396;5.272;2023-06-22T09:23:32;11.88;;;6.00;;
14760;SDS011;7472;45.396;5.272;2023-06-22T09:26:00;16.02;;;6.93;;
14760;SDS011;7472;45.396;5.272;2023-06-22T09:28:29;16.95;;;6.78;;
14760;SDS011;7472;45.396;5.272;2023-06-22T09:30:56;20.05;;;6.93;;
14760;SDS011;7472;45.396;5.272;2023-06-22T09:33:26;14.50;;;6.45;;
14760;SDS011;7472;45.396;5.272;2023-06-22T09:35:53;16.05;;;7.00;;
14760;SDS011;7472;45.396;5.272;2023-06-22T09:38:21;12.25;;;6.47;;
14760;SDS011;7472;45.396;5.272;2023-06-22T09:40:48;16.17;;;7.10;;
14760;SDS011;7472;45.396;5.272;2023-06-22T09:43:16;18.92;;;5.85;;
14760;SDS011;7472;45.396;5.272;2023-06-22T09:45:44;18.77;;;6.75;;
14760;SDS011;7472;45.396;5.272;2023-06-22T09:48:11;15.95;;;6.40;;
14760;SDS011;7472;45.396;5.272;2023-06-22T09:50:40;15.20;;;7.65;;
14760;SDS011;7472;45.396;5.272;2023-06-22T09:53:07;17.88;;;6.78;;
14760;SDS011;7472;45.396;5.272;2023-06-22T09:55:34;18.25;;;6.82;;
14760;SDS011;7472;45.396;5.272;2023-06-22T09:58:02;12.77;;;6.60;;
14760;SDS011;7472;45.396;5.272;2023-06-22T10:00:29;20.02;;;7.43;;
14760;SDS011;7472;45.396;5.272;2023-06-22T10:02:57;14.00;;;6.80;;
14760;SDS011;7472;45.396;5.272;2023-06-22T10:05:24;20.90;;;6.53;;
14760;SDS011;7472;45.396;5.272;2023-06-22T10:07:53;17.33;;;6.43;;
14760;SDS011;7472;45.396;5.272;2023-06-22T10:10:20;12.02;;;6.22;;
14760;SDS011;7472;45.396;5.272;2023-06-22T10:12:53;13.43;;;6.95;;
14760;SDS011;7472;45.396;5.272;2023-06-22T10:15:22;16.27;;;6.38;;
14760;SDS011;7472;45.396;5.272;2023-06-22T10:17:49;18.25;;;7.10;;
14760;SDS011;7472;45.396;5.272;2023-06-22T10:20:16;14.27;;;6.57;;
14760;SDS011;7472;45.396;5.272;2023-06-22T10:22:44;13.50;;;6.43;;
14760;SDS011;7472;45.396;5.272;2023-06-22T10:25:13;18.15;;;6.97;;
14760;SDS011;7472;45.396;5.272;2023-06-22T10:27:40;19.38;;;5.95;;
14760;SDS011;7472;45.396;5.272;2023-06-22T10:30:08;11.82;;;6.10;;
14760;SDS011;7472;45.396;5.272;2023-06-22T10:32:37;18.02;;;6.10;;
14760;SDS011;7472;45.396;5.272;2023-06-22T10:35:05;11.85;;;5.65;;
14760;SDS011;7472;45.396;5.272;2023-06-22T10:37:33;15.05;;;6.75;;
14760;SDS011;7472;45.396;5.272;2023-06-22T10:40:00;12.63;;;5.88;;
14760;SDS011;7472;45.396;5.272;2023-06-22T10:42:29;16.88;;;6.82;;
14760;SDS011;7472;45.396;5.272;2023-06-22T10:44:57;17.67;;;6.43;;
14760;SDS011;7472;45.396;5.272;2023-06-22T10:47:24;21.25;;;6.80;;
14760;SDS011;7472;45.396;5.272;2023-06-22T10:49:51;18.63;;;5.90;;
14760;SDS011;7472;45.396;5.272;2023-06-22T10:52:19;11.27;;;5.65;;
14760;SDS011;7472;45.396;5.272;2023-06-22T10:54:46;15.40;;;5.88;;
14760;SDS011;7472;45.396;5.272;2023-06-22T10:57:13;19.10;;;6.60;;
14760;SDS011;7472;45.396;5.272;2023-06-22T10:59:42;14.35;;;6.20;;
14760;SDS011;7472;45.396;5.272;2023-06-22T11:02:09;12.63;;;6.47;;
14760;SDS011;7472;45.396;5.272;2023-06-22T11:04:37;15.35;;;6.45;;
14760;SDS011;7472;45.396;5.272;2023-06-22T11:07:04;18.20;;;6.43;;
14760;SDS011;7472;45.396;5.272;2023-06-22T11:09:32;19.50;;;6.55;;
14760;SDS011;7472;45.396;5.272;2023-06-22T11:11:59;14.38;;;6.20;;
14760;SDS011;7472;45.396;5.272;2023-06-22T11:14:26;18.77;;;6.70;;
14760;SDS011;7472;45.396;5.272;2023-06-22T11:16:55;15.15;;;6.43;;
14760;SDS011;7472;45.396;5.272;2023-06-22T11:19:23;14.95;;;5.93;;
14760;SDS011;7472;45.396;5.272;2023-06-22T11:21:50;18.30;;;6.93;;
14760;SDS011;7472;45.396;5.272;2023-06-22T11:24:17;16.75;;;6.28;;
14760;SDS011;7472;45.396;5.272;2023-06-22T11:26:45;13.73;;;6.55;;
14760;SDS011;7472;45.396;5.272;2023-06-22T11:29:12;14.02;;;5.97;;
14760;SDS011;7472;45.396;5.272;2023-06-22T11:31:39;21.05;;;6.13;;
14760;SDS011;7472;45.396;5.272;2023-06-22T11:34:10;18.75;;;6.22;;
14760;SDS011;7472;45.396;5.272;2023-06-22T11:36:37;16.23;;;6.38;;
14760;SDS011;7472;45.396;5.272;2023-06-22T11:39:05;14.65;;;5.55;;
14760;SDS011;7472;45.396;5.272;2023-06-22T11:41:34;14.07;;;6.57;;
14760;SDS011;7472;45.396;5.272;2023-06-22T11:44:01;20.40;;;6.85;;
14760;SDS011;7472;45.396;5.272;2023-06-22T11:46:29;14.00;;;7.20;;
14760;SDS011;7472;45.396;5.272;2023-06-22T11:48:57;15.65;;;7.30;;
14760;SDS011;7472;45.396;5.272;2023-06-22T11:51:26;14.02;;;6.90;;
14760;SDS011;7472;45.396;5.272;2023-06-22T11:53:56;15.63;;;6.88;;
14760;SDS011;7472;45.396;5.272;2023-06-22T11:56:24;13.75;;;7.15;;
14760;SDS011;7472;45.396;5.272;2023-06-22T11:58:52;15.88;;;6.68;;
14760;SDS011;7472;45.396;5.272;2023-06-22T12:01:20;16.65;;;6.97;;
14760;SDS011;7472;45.396;5.272;2023-06-22T12:03:47;13.50;;;6.25;;
14760;SDS011;7472;45.396;5.272;2023-06-22T12:06:15;16.35;;;7.10;;
14760;SDS011;7472;45.396;5.272;2023-06-22T12:08:43;12.98;;;7.90;;
14760;SDS011;7472;45.396;5.272;2023-06-22T12:11:11;15.55;;;7.78;;
14760;SDS011;7472;45.396;5.272;2023-06-22T12:13:38;15.93;;;7.50;;
14760;SDS011;7472;45.396;5.272;2023-06-22T12:16:05;11.27;;;6.15;;
14760;SDS011;7472;45.396;5.272;2023-06-22T12:18:33;11.55;;;6.13;;
14760;SDS011;7472;45.396;5.272;2023-06-22T12:21:00;9.98;;;4.28;;
14760;SDS011;7472;45.396;5.272;2023-06-22T12:23:27;7.60;;;4.20;;
14760;SDS011;7472;45.396;5.272;2023-06-22T12:25:56;7.20;;;4.07;;
14760;SDS011;7472;45.396;5.272;2023-06-22T12:28:25;10.43;;;4.80;;
14760;SDS011;7472;45.396;5.272;2023-06-22T12:30:52;9.05;;;4.00;;
14760;SDS011;7472;45.396;5.272;2023-06-22T12:33:19;11.30;;;3.83;;
14760;SDS011;7472;45.396;5.272;2023-06-22T12:35:47;13.48;;;4.05;;
14760;SDS011;7472;45.396;5.272;2023-06-22T12:38:15;10.57;;;3.53;;
14760;SDS011;7472;45.396;5.272;2023-06-22T12:40:42;6.30;;;3.50;;
14760;SDS011;7472;45.396;5.272;2023-06-22T12:43:11;8.45;;;3.45;;
14760;SDS011;7472;45.396;5.272;2023-06-22T12:45:38;11.85;;;4.03;;
14760;SDS011;7472;45.396;5.272;2023-06-22T12:48:06;6.45;;;3.55;;
14760;SDS011;7472;45.396;5.272;2023-06-22T12:50:33;9.05;;;3.42;;
14760;SDS011;7472;45.396;5.272;2023-06-22T12:53:01;11.50;;;3.80;;
14760;SDS011;7472;45.396;5.272;2023-06-22T12:55:29;9.90;;;3.40;;
14760;SDS011;7472;45.396;5.272;2023-06-22T12:57:56;9.85;;;4.07;;
14760;SDS011;7472;45.396;5.272;2023-06-22T13:00:25;9.55;;;3.55;;
14760;SDS011;7472;45.396;5.272;2023-06-22T13:02:52;8.75;;;3.42;;
14760;SDS011;7472;45.396;5.272;2023-06-22T13:05:20;13.18;;;4.07;;
14760;SDS011;7472;45.396;5.272;2023-06-22T13:07:47;6.63;;;3.47;;
14760;SDS011;7472;45.396;5.272;2023-06-22T13:10:14;12.07;;;4.55;;
14760;SDS011;7472;45.396;5.272;2023-06-22T13:12:42;7.05;;;3.35;;
14760;SDS011;7472;45.396;5.272;2023-06-22T13:15:09;14.77;;;3.75;;
14760;SDS011;7472;45.396;5.272;2023-06-22T13:17:38;6.40;;;2.80;;
14760;SDS011;7472;45.396;5.272;2023-06-22T13:20:06;22.98;;;2.90;;
14760;SDS011;7472;45.396;5.272;2023-06-22T13:22:34;13.45;;;2.92;;
14760;SDS011;7472;45.396;5.272;2023-06-22T13:25:05;11.32;;;3.13;;
14760;SDS011;7472;45.396;5.272;2023-06-22T13:27:36;6.13;;;1.40;;
14760;SDS011;7472;45.396;5.272;2023-06-22T13:30:04;9.77;;;3.05;;
14760;SDS011;7472;45.396;5.272;2023-06-22T13:32:32;7.57;;;2.90;;
14760;SDS011;7472;45.396;5.272;2023-06-22T13:35:01;9.00;;;2.70;;
14760;SDS011;7472;45.396;5.272;2023-06-22T13:37:28;7.35;;;2.35;;
14760;SDS011;7472;45.396;5.272;2023-06-22T13:39:55;9.32;;;2.78;;
14760;SDS011;7472;45.396;5.272;2023-06-22T13:42:24;7.63;;;2.85;;
14760;SDS011;7472;45.396;5.272;2023-06-22T13:44:52;16.65;;;2.90;;
14760;SDS011;7472;45.396;5.272;2023-06-22T13:47:19;6.65;;;2.70;;
14760;SDS011;7472;45.396;5.272;2023-06-22T13:49:46;8.30;;;2.45;;
14760;SDS011;7472;45.396;5.272;2023-06-22T13:52:15;11.80;;;3.45;;
14760;SDS011;7472;45.396;5.272;2023-06-22T13:54:42;5.93;;;2.92;;
14760;SDS011;7472;45.396;5.272;2023-06-22T13:57:10;11.20;;;3.58;;
14760;SDS011;7472;45.396;5.272;2023-06-22T13:59:37;6.55;;;2.80;;
14760;SDS011;7472;45.396;5.272;2023-06-22T14:02:05;7.53;;;3.35;;
14760;SDS011;7472;45.396;5.272;2023-06-22T14:04:32;7.32;;;2.80;;
14760;SDS011;7472;45.396;5.272;2023-06-22T14:07:00;6.75;;;3.13;;
14760;SDS011;7472;45.396;5.272;2023-06-22T14:09:29;8.02;;;2.72;;
14760;SDS011;7472;45.396;5.272;2023-06-22T14:11:56;5.30;;;2.90;;
14760;SDS011;7472;45.396;5.272;2023-06-22T14:14:23;5.30;;;2.60;;
14760;SDS011;7472;45.396;5.272;2023-06-22T14:16:51;4.95;;;3.35;;
14760;SDS011;7472;45.396;5.272;2023-06-22T14:19:19;4.75;;;2.97;;
14760;SDS011;7472;45.396;5.272;2023-06-22T14:21:46;6.57;;;3.38;;
14760;SDS011;7472;45.396;5.272;2023-06-22T14:24:14;7.53;;;3.00;;
14760;SDS011;7472;45.396;5.272;2023-06-22T14:26:42;4.53;;;2.95;;
14760;SDS011;7472;45.396;5.272;2023-06-22T14:29:10;5.70;;;3.13;;
14760;SDS011;7472;45.396;5.272;2023-06-22T14:31:37;4.75;;;2.60;;
14760;SDS011;7472;45.396;5.272;2023-06-22T14:34:04;4.88;;;2.45;;
14760;SDS011;7472;45.396;5.272;2023-06-22T14:36:32;5.40;;;2.88;;
14760;SDS011;7472;45.396;5.272;2023-06-22T14:38:59;7.40;;;3.08;;
14760;SDS011;7472;45.396;5.272;2023-06-22T14:41:26;6.40;;;3.35;;
14760;SDS011;7472;45.396;5.272;2023-06-22T14:43:55;4.75;;;2.58;;
14760;SDS011;7472;45.396;5.272;2023-06-22T14:46:23;2.33;;;2.13;;
14760;SDS011;7472;45.396;5.272;2023-06-22T14:48:50;6.57;;;2.80;;
14760;SDS011;7472;45.396;5.272;2023-06-22T14:51:17;4.07;;;2.22;;